LSZH/ZRH METAR and TAF weather

Enter ICAO airport designator
Station Type Date Time Source
LSZH METAR 2020/09/26 21:50 UTC NOAA

LSZH 262150Z 23007KT 9999 -DZ SCT013 SCT018 BKN023 07/05 Q1005 TEMPO RA BKN013


Station Type Date Time Source
LSZH Decoded METAR 2020/09/26 21:50 UTC NOAA

Zurich-Kloten, Switzerland (LSZH) 47-29N 008-32E 432M
Sep 26, 2020 - 05:50 PM EDT / 2020.09.26 2150 UTC
Wind: from the SW (230 degrees) at 8 MPH (7 KT):0
Visibility: greater than 7 mile(s):0
Sky conditions: mostly cloudy
Weather: light drizzle
Temperature: 44 F (7 C)
Dew Point: 41 F (5 C)
Relative Humidity: 87%
Pressure (altimeter): 29.68 in. Hg (1005 hPa)
ob: LSZH 262150Z 23007KT 9999 -DZ SCT013 SCT018 BKN023 07/05 Q1005 TEMPO RA BKN013
cycle: 22

Station Type Date Time Source
LSZH TAF 2020/09/26 21:33 UTC NOAA

TAF LSZH 262025Z 2621/2803 23007KT 9999 -RA FEW012 BKN025 TX13/2713Z TN07/2705Z
BECMG 2714/2717 VRB03KT

Example: see airport list